Izmir Cigli Air Force Base, Turkey

Saat: 12:00 PM EEST Tarih: 30 Ağustos 2016 (GMT +0300)
Adnan Menderes | | Change Station

Elev 394 ft 38.29 °N, 27.15 °E | Updated 40 minutes ago

Partly Cloudy
Parçalı Bulutlu
84
Feels Like 84
N
13
Rüzgar Değişken Rüzgar from KKB

Bugün
High -- | Low -- F°
--% Chance of Precip.
Dün
High -- | Low -- F°
Precip. -- inç
Basınç 29.89 inç
Görüş Uzaklığı 6.2 mil
Bulutlar Few 3000 ft
Sıcaklık endeksi 84
Çiğ noktası 59
Nem oranı 42%
Yağış 0.00 inç
Kar Kalınlığı Not available.
6:39 AM 7:44 PM
Hilal, 4% visible
METAR LTBJ 300820Z 34011KT 310V010 9999 FEW030 29/15 Q1012 NOSIG RMK RWY16 35011KT 320V030
Basınç 29.89 inç
Görüş Uzaklığı 6.2 mil
Bulutlar Few 3000 ft
Sıcaklık endeksi 84
Çiğ noktası 59
Nem oranı 42%
Yağış 0.00 inç
Kar Kalınlığı Not available.
6:39 AM 7:44 PM
Hilal, 4% visible
METAR LTBJ 300820Z 34011KT 310V010 9999 FEW030 29/15 Q1012 NOSIG RMK RWY16 35011KT 320V030

10-Day Weather Forecast

×

Almanac

Gökbilim

Aug. 30, 2016 Rise Set
Gerçek Zaman
Günlük Tan
Deniz Tanı
Geceyarısı Yıldız Zamanı
Ay
Görünür Işığın Uzunluğu
Günün Uzunluğu
Tomorrow will be .
, % of the Moon is Illuminated

Günün En Yüksekleri

Country Highs Country Lows

Community

WunderPhotos

Upload Photos

1,935,795 photos uploaded!

WunderBlog® & News

Nearby

Hava Kalitesi

  Hava Kalitesi Hava Kalitesi Endeksi Kirletici
Not available.

Kar Kalınlığı

Station Depth Yükseklik

Earthquake Activity

Şehir Distance Mag. Time & Date
Minimum magnitude displayed is 2.5.

Coastal Water Temperatures

Yer Sıcaklık

Stations

Nearby Weather Stations

Station Location Sıcaklık Rüzgar Etkisi Çiğ noktası Nem oranı Rüzgar Precip. Elev Güncellenme Zamanı Biçim